sensor_id;sensor_type;location;lat;lon;timestamp;P1;durP1;ratioP1;P2;durP2;ratioP2
41653;SDS011;68687;52.030;7.110;2023-08-17T00:00:48;8.10;;;4.85;;
41653;SDS011;68687;52.030;7.110;2023-08-17T00:03:13;7.40;;;4.07;;
41653;SDS011;68687;52.030;7.110;2023-08-17T00:05:39;8.65;;;3.95;;
41653;SDS011;68687;52.030;7.110;2023-08-17T00:08:05;5.38;;;4.18;;
41653;SDS011;68687;52.030;7.110;2023-08-17T00:10:30;4.95;;;4.20;;
41653;SDS011;68687;52.030;7.110;2023-08-17T00:12:55;8.55;;;4.65;;
41653;SDS011;68687;52.030;7.110;2023-08-17T00:15:21;8.38;;;4.30;;
41653;SDS011;68687;52.030;7.110;2023-08-17T00:17:46;12.20;;;4.10;;
41653;SDS011;68687;52.030;7.110;2023-08-17T00:20:12;4.75;;;4.13;;
41653;SDS011;68687;52.030;7.110;2023-08-17T00:22:38;8.55;;;4.47;;
41653;SDS011;68687;52.030;7.110;2023-08-17T00:25:03;13.25;;;4.82;;
41653;SDS011;68687;52.030;7.110;2023-08-17T00:27:29;6.57;;;4.45;;
41653;SDS011;68687;52.030;7.110;2023-08-17T00:29:56;9.45;;;4.07;;
41653;SDS011;68687;52.030;7.110;2023-08-17T00:32:22;10.10;;;4.60;;
41653;SDS011;68687;52.030;7.110;2023-08-17T00:34:47;9.90;;;4.38;;
41653;SDS011;68687;52.030;7.110;2023-08-17T00:37:12;8.18;;;4.60;;
41653;SDS011;68687;52.030;7.110;2023-08-17T00:39:38;12.73;;;4.28;;
41653;SDS011;68687;52.030;7.110;2023-08-17T00:42:03;8.82;;;4.53;;
41653;SDS011;68687;52.030;7.110;2023-08-17T00:44:29;7.88;;;4.47;;
41653;SDS011;68687;52.030;7.110;2023-08-17T00:46:54;4.68;;;3.90;;
41653;SDS011;68687;52.030;7.110;2023-08-17T00:49:20;8.27;;;4.35;;
41653;SDS011;68687;52.030;7.110;2023-08-17T00:51:45;8.23;;;4.28;;
41653;SDS011;68687;52.030;7.110;2023-08-17T00:54:11;7.15;;;4.07;;
41653;SDS011;68687;52.030;7.110;2023-08-17T00:56:37;7.78;;;4.22;;
41653;SDS011;68687;52.030;7.110;2023-08-17T00:59:02;10.02;;;5.10;;
41653;SDS011;68687;52.030;7.110;2023-08-17T01:01:29;9.73;;;4.57;;
41653;SDS011;68687;52.030;7.110;2023-08-17T01:03:55;8.40;;;4.05;;
41653;SDS011;68687;52.030;7.110;2023-08-17T01:06:20;6.72;;;3.90;;
41653;SDS011;68687;52.030;7.110;2023-08-17T01:08:45;10.73;;;4.88;;
41653;SDS011;68687;52.030;7.110;2023-08-17T01:11:15;9.98;;;4.40;;
41653;SDS011;68687;52.030;7.110;2023-08-17T01:13:49;10.40;;;4.95;;
41653;SDS011;68687;52.030;7.110;2023-08-17T01:16:27;4.20;;;3.67;;
41653;SDS011;68687;52.030;7.110;2023-08-17T01:18:58;7.40;;;3.85;;
41653;SDS011;68687;52.030;7.110;2023-08-17T01:21:25;12.55;;;4.10;;
41653;SDS011;68687;52.030;7.110;2023-08-17T01:26:28;8.95;;;4.47;;
41653;SDS011;68687;52.030;7.110;2023-08-17T01:28:53;10.85;;;4.72;;
41653;SDS011;68687;52.030;7.110;2023-08-17T01:31:19;7.72;;;3.88;;
41653;SDS011;68687;52.030;7.110;2023-08-17T01:33:50;7.00;;;4.20;;
41653;SDS011;68687;52.030;7.110;2023-08-17T01:36:30;10.88;;;5.13;;
41653;SDS011;68687;52.030;7.110;2023-08-17T01:38:58;8.00;;;4.38;;
41653;SDS011;68687;52.030;7.110;2023-08-17T01:41:25;5.82;;;4.15;;
41653;SDS011;68687;52.030;7.110;2023-08-17T01:43:51;7.07;;;3.70;;
41653;SDS011;68687;52.030;7.110;2023-08-17T01:46:18;11.35;;;4.38;;
41653;SDS011;68687;52.030;7.110;2023-08-17T01:48:44;5.72;;;3.78;;
41653;SDS011;68687;52.030;7.110;2023-08-17T01:51:11;9.93;;;4.13;;
41653;SDS011;68687;52.030;7.110;2023-08-17T01:53:37;9.52;;;4.47;;
41653;SDS011;68687;52.030;7.110;2023-08-17T01:56:02;9.77;;;5.35;;
41653;SDS011;68687;52.030;7.110;2023-08-17T01:58:28;6.07;;;4.15;;
41653;SDS011;68687;52.030;7.110;2023-08-17T02:00:53;9.23;;;4.70;;
41653;SDS011;68687;52.030;7.110;2023-08-17T02:03:18;8.20;;;4.35;;
41653;SDS011;68687;52.030;7.110;2023-08-17T02:05:44;9.55;;;4.32;;
41653;SDS011;68687;52.030;7.110;2023-08-17T02:08:10;9.13;;;4.28;;
41653;SDS011;68687;52.030;7.110;2023-08-17T02:10:36;4.47;;;3.92;;
41653;SDS011;68687;52.030;7.110;2023-08-17T02:13:01;8.40;;;4.18;;
41653;SDS011;68687;52.030;7.110;2023-08-17T02:15:26;9.52;;;4.90;;
41653;SDS011;68687;52.030;7.110;2023-08-17T02:17:52;6.13;;;3.75;;
41653;SDS011;68687;52.030;7.110;2023-08-17T02:20:17;12.35;;;4.15;;
41653;SDS011;68687;52.030;7.110;2023-08-17T02:22:42;5.55;;;4.00;;
41653;SDS011;68687;52.030;7.110;2023-08-17T02:25:08;5.95;;;4.35;;
41653;SDS011;68687;52.030;7.110;2023-08-17T02:27:33;9.73;;;4.22;;
41653;SDS011;68687;52.030;7.110;2023-08-17T02:29:59;7.53;;;4.30;;
41653;SDS011;68687;52.030;7.110;2023-08-17T02:32:24;7.22;;;4.00;;
41653;SDS011;68687;52.030;7.110;2023-08-17T02:34:49;10.10;;;4.43;;
41653;SDS011;68687;52.030;7.110;2023-08-17T02:37:15;7.88;;;4.28;;
41653;SDS011;68687;52.030;7.110;2023-08-17T02:39:40;10.15;;;4.68;;
41653;SDS011;68687;52.030;7.110;2023-08-17T02:42:05;7.78;;;4.45;;
41653;SDS011;68687;52.030;7.110;2023-08-17T02:44:31;9.73;;;4.78;;
41653;SDS011;68687;52.030;7.110;2023-08-17T02:46:56;9.15;;;4.18;;
41653;SDS011;68687;52.030;7.110;2023-08-17T02:49:21;10.27;;;4.20;;
41653;SDS011;68687;52.030;7.110;2023-08-17T02:51:47;9.55;;;4.43;;
41653;SDS011;68687;52.030;7.110;2023-08-17T02:54:12;10.57;;;4.80;;
41653;SDS011;68687;52.030;7.110;2023-08-17T02:56:37;11.50;;;4.75;;
41653;SDS011;68687;52.030;7.110;2023-08-17T02:59:02;6.88;;;5.50;;
41653;SDS011;68687;52.030;7.110;2023-08-17T03:01:28;8.60;;;5.10;;
41653;SDS011;68687;52.030;7.110;2023-08-17T03:03:54;12.00;;;5.93;;
41653;SDS011;68687;52.030;7.110;2023-08-17T03:06:20;7.57;;;5.57;;
41653;SDS011;68687;52.030;7.110;2023-08-17T03:08:45;11.55;;;5.65;;
41653;SDS011;68687;52.030;7.110;2023-08-17T03:11:10;16.80;;;6.28;;
41653;SDS011;68687;52.030;7.110;2023-08-17T03:13:36;15.32;;;6.95;;
41653;SDS011;68687;52.030;7.110;2023-08-17T03:16:01;11.60;;;6.45;;
41653;SDS011;68687;52.030;7.110;2023-08-17T03:18:26;12.40;;;6.15;;
41653;SDS011;68687;52.030;7.110;2023-08-17T03:20:52;10.15;;;5.45;;
41653;SDS011;68687;52.030;7.110;2023-08-17T03:23:17;11.52;;;5.90;;
41653;SDS011;68687;52.030;7.110;2023-08-17T03:25:42;9.95;;;6.18;;
41653;SDS011;68687;52.030;7.110;2023-08-17T03:28:08;10.02;;;6.78;;
41653;SDS011;68687;52.030;7.110;2023-08-17T03:30:33;9.10;;;7.13;;
41653;SDS011;68687;52.030;7.110;2023-08-17T03:32:58;12.50;;;7.15;;
41653;SDS011;68687;52.030;7.110;2023-08-17T03:35:24;10.73;;;7.72;;
41653;SDS011;68687;52.030;7.110;2023-08-17T03:37:49;16.83;;;7.85;;
41653;SDS011;68687;52.030;7.110;2023-08-17T03:40:15;11.13;;;8.10;;
41653;SDS011;68687;52.030;7.110;2023-08-17T03:42:40;10.05;;;7.75;;
41653;SDS011;68687;52.030;7.110;2023-08-17T03:45:06;12.07;;;7.88;;
41653;SDS011;68687;52.030;7.110;2023-08-17T03:47:32;13.80;;;7.32;;
41653;SDS011;68687;52.030;7.110;2023-08-17T03:49:57;17.65;;;7.28;;
41653;SDS011;68687;52.030;7.110;2023-08-17T03:52:22;10.98;;;7.30;;
41653;SDS011;68687;52.030;7.110;2023-08-17T03:54:48;11.57;;;7.30;;
41653;SDS011;68687;52.030;7.110;2023-08-17T03:57:13;14.05;;;7.20;;
41653;SDS011;68687;52.030;7.110;2023-08-17T03:59:38;12.75;;;6.90;;
41653;SDS011;68687;52.030;7.110;2023-08-17T04:02:04;13.07;;;6.72;;
41653;SDS011;68687;52.030;7.110;2023-08-17T04:04:29;12.55;;;7.25;;
41653;SDS011;68687;52.030;7.110;2023-08-17T04:06:54;10.60;;;6.97;;
41653;SDS011;68687;52.030;7.110;2023-08-17T04:09:20;13.68;;;8.02;;
41653;SDS011;68687;52.030;7.110;2023-08-17T04:11:45;11.95;;;7.35;;
41653;SDS011;68687;52.030;7.110;2023-08-17T04:14:10;14.07;;;8.30;;
41653;SDS011;68687;52.030;7.110;2023-08-17T04:16:35;13.27;;;7.47;;
41653;SDS011;68687;52.030;7.110;2023-08-17T04:19:01;11.70;;;7.63;;
41653;SDS011;68687;52.030;7.110;2023-08-17T04:21:26;17.08;;;8.75;;
41653;SDS011;68687;52.030;7.110;2023-08-17T04:23:51;15.43;;;8.10;;
41653;SDS011;68687;52.030;7.110;2023-08-17T04:26:17;14.40;;;7.55;;
41653;SDS011;68687;52.030;7.110;2023-08-17T04:28:42;13.68;;;8.00;;
41653;SDS011;68687;52.030;7.110;2023-08-17T04:31:07;12.30;;;7.43;;
41653;SDS011;68687;52.030;7.110;2023-08-17T04:33:33;11.75;;;8.05;;
41653;SDS011;68687;52.030;7.110;2023-08-17T04:35:58;12.85;;;8.35;;
41653;SDS011;68687;52.030;7.110;2023-08-17T04:38:24;13.85;;;8.85;;
41653;SDS011;68687;52.030;7.110;2023-08-17T04:40:50;14.45;;;7.95;;
41653;SDS011;68687;52.030;7.110;2023-08-17T04:43:15;13.70;;;7.50;;
41653;SDS011;68687;52.030;7.110;2023-08-17T04:45:40;9.90;;;7.78;;
41653;SDS011;68687;52.030;7.110;2023-08-17T04:48:06;9.45;;;6.53;;
41653;SDS011;68687;52.030;7.110;2023-08-17T04:50:31;12.80;;;7.72;;
41653;SDS011;68687;52.030;7.110;2023-08-17T04:52:57;12.55;;;6.40;;
41653;SDS011;68687;52.030;7.110;2023-08-17T04:55:22;12.25;;;6.95;;
41653;SDS011;68687;52.030;7.110;2023-08-17T04:57:48;8.52;;;7.00;;
41653;SDS011;68687;52.030;7.110;2023-08-17T05:00:13;13.27;;;6.82;;
41653;SDS011;68687;52.030;7.110;2023-08-17T05:02:40;14.90;;;7.53;;
41653;SDS011;68687;52.030;7.110;2023-08-17T05:05:05;17.85;;;7.70;;
41653;SDS011;68687;52.030;7.110;2023-08-17T05:07:32;13.40;;;7.65;;
41653;SDS011;68687;52.030;7.110;2023-08-17T05:09:58;11.13;;;6.80;;
41653;SDS011;68687;52.030;7.110;2023-08-17T05:12:24;10.02;;;7.03;;
41653;SDS011;68687;52.030;7.110;2023-08-17T05:14:49;9.63;;;7.10;;
41653;SDS011;68687;52.030;7.110;2023-08-17T05:17:14;12.70;;;6.75;;
41653;SDS011;68687;52.030;7.110;2023-08-17T05:19:39;14.95;;;7.78;;
41653;SDS011;68687;52.030;7.110;2023-08-17T05:22:09;12.20;;;6.72;;
41653;SDS011;68687;52.030;7.110;2023-08-17T05:24:35;13.82;;;6.80;;
41653;SDS011;68687;52.030;7.110;2023-08-17T05:27:00;10.40;;;6.20;;
41653;SDS011;68687;52.030;7.110;2023-08-17T05:29:26;12.02;;;7.30;;
41653;SDS011;68687;52.030;7.110;2023-08-17T05:31:51;11.85;;;7.50;;
41653;SDS011;68687;52.030;7.110;2023-08-17T05:34:16;12.48;;;7.05;;
41653;SDS011;68687;52.030;7.110;2023-08-17T05:36:42;11.10;;;6.80;;
41653;SDS011;68687;52.030;7.110;2023-08-17T05:39:07;9.45;;;6.45;;
41653;SDS011;68687;52.030;7.110;2023-08-17T05:41:32;16.67;;;7.35;;
41653;SDS011;68687;52.030;7.110;2023-08-17T05:43:58;17.92;;;7.30;;
41653;SDS011;68687;52.030;7.110;2023-08-17T05:46:23;9.75;;;6.63;;
41653;SDS011;68687;52.030;7.110;2023-08-17T05:48:49;13.20;;;7.68;;
41653;SDS011;68687;52.030;7.110;2023-08-17T05:51:14;13.88;;;7.65;;
41653;SDS011;68687;52.030;7.110;2023-08-17T05:53:39;14.85;;;7.20;;
41653;SDS011;68687;52.030;7.110;2023-08-17T05:56:05;12.48;;;6.57;;
41653;SDS011;68687;52.030;7.110;2023-08-17T05:58:30;11.30;;;7.60;;
41653;SDS011;68687;52.030;7.110;2023-08-17T06:01:03;13.38;;;7.03;;
41653;SDS011;68687;52.030;7.110;2023-08-17T06:03:29;17.67;;;7.15;;
41653;SDS011;68687;52.030;7.110;2023-08-17T06:05:54;14.15;;;7.80;;
41653;SDS011;68687;52.030;7.110;2023-08-17T06:08:19;14.00;;;7.55;;
41653;SDS011;68687;52.030;7.110;2023-08-17T06:10:45;13.25;;;7.45;;
41653;SDS011;68687;52.030;7.110;2023-08-17T06:13:10;15.93;;;8.18;;
41653;SDS011;68687;52.030;7.110;2023-08-17T06:15:35;12.18;;;7.35;;
41653;SDS011;68687;52.030;7.110;2023-08-17T06:18:00;15.23;;;6.97;;
41653;SDS011;68687;52.030;7.110;2023-08-17T06:20:26;11.73;;;7.47;;
41653;SDS011;68687;52.030;7.110;2023-08-17T06:22:51;12.52;;;7.30;;
41653;SDS011;68687;52.030;7.110;2023-08-17T06:25:16;12.35;;;7.03;;
41653;SDS011;68687;52.030;7.110;2023-08-17T06:27:42;11.45;;;7.15;;
41653;SDS011;68687;52.030;7.110;2023-08-17T06:30:10;12.38;;;7.05;;
41653;SDS011;68687;52.030;7.110;2023-08-17T06:32:36;11.40;;;6.72;;
41653;SDS011;68687;52.030;7.110;2023-08-17T06:35:01;15.15;;;7.43;;
41653;SDS011;68687;52.030;7.110;2023-08-17T06:37:26;12.20;;;6.88;;
41653;SDS011;68687;52.030;7.110;2023-08-17T06:39:52;12.85;;;7.05;;
41653;SDS011;68687;52.030;7.110;2023-08-17T06:42:17;12.10;;;7.15;;
41653;SDS011;68687;52.030;7.110;2023-08-17T06:44:42;11.45;;;6.15;;
41653;SDS011;68687;52.030;7.110;2023-08-17T06:47:08;8.88;;;6.38;;
41653;SDS011;68687;52.030;7.110;2023-08-17T06:49:34;9.70;;;6.53;;
41653;SDS011;68687;52.030;7.110;2023-08-17T06:52:00;11.82;;;7.30;;
41653;SDS011;68687;52.030;7.110;2023-08-17T06:54:25;12.18;;;6.85;;
41653;SDS011;68687;52.030;7.110;2023-08-17T06:56:50;11.85;;;7.43;;
41653;SDS011;68687;52.030;7.110;2023-08-17T06:59:15;13.10;;;6.85;;
41653;SDS011;68687;52.030;7.110;2023-08-17T07:01:41;13.20;;;6.70;;
41653;SDS011;68687;52.030;7.110;2023-08-17T07:04:07;13.20;;;6.70;;
41653;SDS011;68687;52.030;7.110;2023-08-17T07:06:32;12.52;;;6.43;;
41653;SDS011;68687;52.030;7.110;2023-08-17T07:08:58;15.80;;;7.25;;
41653;SDS011;68687;52.030;7.110;2023-08-17T07:11:24;20.90;;;7.78;;
41653;SDS011;68687;52.030;7.110;2023-08-17T07:13:49;12.70;;;7.13;;
41653;SDS011;68687;52.030;7.110;2023-08-17T07:16:15;9.23;;;6.60;;
41653;SDS011;68687;52.030;7.110;2023-08-17T07:18:40;13.77;;;6.88;;
41653;SDS011;68687;52.030;7.110;2023-08-17T07:21:05;13.10;;;7.13;;
41653;SDS011;68687;52.030;7.110;2023-08-17T07:23:31;17.77;;;6.78;;
41653;SDS011;68687;52.030;7.110;2023-08-17T07:25:56;13.48;;;6.82;;
41653;SDS011;68687;52.030;7.110;2023-08-17T07:28:21;11.55;;;7.18;;
41653;SDS011;68687;52.030;7.110;2023-08-17T07:30:47;12.38;;;8.20;;
41653;SDS011;68687;52.030;7.110;2023-08-17T07:33:12;19.45;;;6.70;;
41653;SDS011;68687;52.030;7.110;2023-08-17T07:35:37;13.68;;;6.93;;
41653;SDS011;68687;52.030;7.110;2023-08-17T07:38:03;13.55;;;6.68;;
41653;SDS011;68687;52.030;7.110;2023-08-17T07:40:28;13.60;;;7.10;;
41653;SDS011;68687;52.030;7.110;2023-08-17T07:42:53;14.18;;;6.97;;
41653;SDS011;68687;52.030;7.110;2023-08-17T07:45:19;9.80;;;6.75;;
41653;SDS011;68687;52.030;7.110;2023-08-17T07:47:44;11.00;;;7.03;;
41653;SDS011;68687;52.030;7.110;2023-08-17T07:50:09;14.02;;;7.18;;
41653;SDS011;68687;52.030;7.110;2023-08-17T07:52:35;10.82;;;7.47;;
41653;SDS011;68687;52.030;7.110;2023-08-17T07:55:00;12.20;;;7.95;;
41653;SDS011;68687;52.030;7.110;2023-08-17T07:57:25;14.98;;;7.78;;
41653;SDS011;68687;52.030;7.110;2023-08-17T07:59:51;14.98;;;7.82;;
41653;SDS011;68687;52.030;7.110;2023-08-17T08:02:16;13.00;;;7.53;;
41653;SDS011;68687;52.030;7.110;2023-08-17T08:04:42;12.90;;;8.07;;
41653;SDS011;68687;52.030;7.110;2023-08-17T08:07:08;14.43;;;8.20;;
41653;SDS011;68687;52.030;7.110;2023-08-17T08:09:33;13.43;;;8.50;;
41653;SDS011;68687;52.030;7.110;2023-08-17T08:11:59;13.15;;;7.82;;
41653;SDS011;68687;52.030;7.110;2023-08-17T08:14:24;12.68;;;8.02;;
41653;SDS011;68687;52.030;7.110;2023-08-17T08:16:49;12.10;;;7.60;;
41653;SDS011;68687;52.030;7.110;2023-08-17T08:19:15;22.08;;;8.57;;
41653;SDS011;68687;52.030;7.110;2023-08-17T08:21:40;13.35;;;8.23;;
41653;SDS011;68687;52.030;7.110;2023-08-17T08:24:06;9.80;;;7.85;;
41653;SDS011;68687;52.030;7.110;2023-08-17T08:26:31;12.57;;;7.85;;
41653;SDS011;68687;52.030;7.110;2023-08-17T08:28:57;14.07;;;8.18;;
41653;SDS011;68687;52.030;7.110;2023-08-17T08:31:22;12.20;;;8.15;;
41653;SDS011;68687;52.030;7.110;2023-08-17T08:33:47;9.60;;;7.10;;
41653;SDS011;68687;52.030;7.110;2023-08-17T08:36:12;13.80;;;7.88;;
41653;SDS011;68687;52.030;7.110;2023-08-17T08:38:38;12.63;;;8.45;;
41653;SDS011;68687;52.030;7.110;2023-08-17T08:41:03;12.55;;;7.80;;
41653;SDS011;68687;52.030;7.110;2023-08-17T08:43:29;15.05;;;8.13;;
41653;SDS011;68687;52.030;7.110;2023-08-17T08:45:55;10.80;;;8.10;;
41653;SDS011;68687;52.030;7.110;2023-08-17T08:48:20;12.55;;;8.82;;
41653;SDS011;68687;52.030;7.110;2023-08-17T08:50:47;11.77;;;8.50;;
41653;SDS011;68687;52.030;7.110;2023-08-17T08:53:17;15.77;;;8.57;;
41653;SDS011;68687;52.030;7.110;2023-08-17T08:55:59;10.55;;;7.63;;
41653;SDS011;68687;52.030;7.110;2023-08-17T08:58:26;9.45;;;7.38;;
41653;SDS011;68687;52.030;7.110;2023-08-17T09:00:53;9.23;;;6.97;;
41653;SDS011;68687;52.030;7.110;2023-08-17T09:03:20;12.05;;;7.72;;
41653;SDS011;68687;52.030;7.110;2023-08-17T09:05:49;13.05;;;8.55;;
41653;SDS011;68687;52.030;7.110;2023-08-17T09:08:21;14.63;;;9.00;;
41653;SDS011;68687;52.030;7.110;2023-08-17T09:10:48;11.90;;;9.23;;
41653;SDS011;68687;52.030;7.110;2023-08-17T09:13:14;13.30;;;8.98;;
41653;SDS011;68687;52.030;7.110;2023-08-17T09:15:39;14.15;;;8.93;;
41653;SDS011;68687;52.030;7.110;2023-08-17T09:18:05;11.07;;;9.00;;
41653;SDS011;68687;52.030;7.110;2023-08-17T09:20:39;10.82;;;8.85;;
41653;SDS011;68687;52.030;7.110;2023-08-17T09:23:13;11.57;;;8.95;;
41653;SDS011;68687;52.030;7.110;2023-08-17T09:25:40;15.05;;;10.07;;
41653;SDS011;68687;52.030;7.110;2023-08-17T09:28:17;14.50;;;9.50;;
41653;SDS011;68687;52.030;7.110;2023-08-17T09:30:56;15.00;;;9.77;;
41653;SDS011;68687;52.030;7.110;2023-08-17T09:33:27;13.50;;;10.05;;
41653;SDS011;68687;52.030;7.110;2023-08-17T09:35:54;15.15;;;10.80;;
41653;SDS011;68687;52.030;7.110;2023-08-17T09:38:20;13.80;;;10.10;;
41653;SDS011;68687;52.030;7.110;2023-08-17T09:40:46;12.60;;;9.88;;
41653;SDS011;68687;52.030;7.110;2023-08-17T09:43:12;13.85;;;9.55;;
41653;SDS011;68687;52.030;7.110;2023-08-17T09:45:39;15.50;;;10.50;;
41653;SDS011;68687;52.030;7.110;2023-08-17T09:48:05;15.13;;;10.57;;
41653;SDS011;68687;52.030;7.110;2023-08-17T09:50:32;11.90;;;9.82;;
41653;SDS011;68687;52.030;7.110;2023-08-17T09:52:57;13.32;;;11.07;;
41653;SDS011;68687;52.030;7.110;2023-08-17T09:55:23;12.77;;;11.13;;
41653;SDS011;68687;52.030;7.110;2023-08-17T09:57:51;14.52;;;11.35;;
41653;SDS011;68687;52.030;7.110;2023-08-17T10:00:18;12.73;;;9.27;;
41653;SDS011;68687;52.030;7.110;2023-08-17T10:02:44;16.67;;;10.02;;
41653;SDS011;68687;52.030;7.110;2023-08-17T10:05:11;11.70;;;9.48;;
41653;SDS011;68687;52.030;7.110;2023-08-17T10:07:38;13.32;;;9.75;;
41653;SDS011;68687;52.030;7.110;2023-08-17T10:10:06;18.83;;;11.07;;
41653;SDS011;68687;52.030;7.110;2023-08-17T10:12:34;14.00;;;10.50;;
41653;SDS011;68687;52.030;7.110;2023-08-17T10:15:10;15.63;;;10.82;;
41653;SDS011;68687;52.030;7.110;2023-08-17T10:17:50;16.58;;;10.75;;
41653;SDS011;68687;52.030;7.110;2023-08-17T10:20:23;13.93;;;10.80;;
41653;SDS011;68687;52.030;7.110;2023-08-17T10:25:44;13.60;;;10.57;;
41653;SDS011;68687;52.030;7.110;2023-08-17T10:28:10;17.63;;;10.77;;
41653;SDS011;68687;52.030;7.110;2023-08-17T10:30:36;17.67;;;11.90;;
41653;SDS011;68687;52.030;7.110;2023-08-17T10:33:02;13.75;;;10.38;;
41653;SDS011;68687;52.030;7.110;2023-08-17T10:35:33;14.88;;;12.13;;
41653;SDS011;68687;52.030;7.110;2023-08-17T10:37:59;15.77;;;11.52;;
41653;SDS011;68687;52.030;7.110;2023-08-17T10:40:26;14.45;;;11.15;;
41653;SDS011;68687;52.030;7.110;2023-08-17T10:42:55;11.85;;;10.60;;
41653;SDS011;68687;52.030;7.110;2023-08-17T10:47:46;18.67;;;13.57;;
41653;SDS011;68687;52.030;7.110;2023-08-17T10:50:21;21.77;;;14.07;;
41653;SDS011;68687;52.030;7.110;2023-08-17T10:52:49;16.63;;;12.25;;
41653;SDS011;68687;52.030;7.110;2023-08-17T10:55:16;17.30;;;13.20;;
41653;SDS011;68687;52.030;7.110;2023-08-17T10:57:42;17.85;;;12.90;;
41653;SDS011;68687;52.030;7.110;2023-08-17T11:00:18;19.67;;;12.55;;
41653;SDS011;68687;52.030;7.110;2023-08-17T11:03:00;13.35;;;11.55;;
41653;SDS011;68687;52.030;7.110;2023-08-17T11:08:28;19.00;;;13.27;;
41653;SDS011;68687;52.030;7.110;2023-08-17T11:11:06;16.60;;;12.88;;
41653;SDS011;68687;52.030;7.110;2023-08-17T11:13:35;17.70;;;13.95;;
41653;SDS011;68687;52.030;7.110;2023-08-17T11:16:03;17.58;;;13.45;;
41653;SDS011;68687;52.030;7.110;2023-08-17T11:18:29;19.17;;;13.18;;
41653;SDS011;68687;52.030;7.110;2023-08-17T11:20:55;17.05;;;14.35;;
41653;SDS011;68687;52.030;7.110;2023-08-17T11:23:22;21.30;;;16.02;;
41653;SDS011;68687;52.030;7.110;2023-08-17T11:25:48;22.42;;;15.40;;
41653;SDS011;68687;52.030;7.110;2023-08-17T11:28:16;25.85;;;16.60;;
41653;SDS011;68687;52.030;7.110;2023-08-17T11:30:42;23.73;;;15.80;;
41653;SDS011;68687;52.030;7.110;2023-08-17T11:33:08;22.27;;;15.02;;
41653;SDS011;68687;52.030;7.110;2023-08-17T11:35:34;22.55;;;16.60;;
41653;SDS011;68687;52.030;7.110;2023-08-17T11:38:04;22.08;;;16.25;;
41653;SDS011;68687;52.030;7.110;2023-08-17T11:40:30;21.55;;;16.33;;
41653;SDS011;68687;52.030;7.110;2023-08-17T11:42:57;18.13;;;14.88;;
41653;SDS011;68687;52.030;7.110;2023-08-17T11:45:23;17.52;;;15.13;;
41653;SDS011;68687;52.030;7.110;2023-08-17T11:47:49;20.98;;;16.52;;
41653;SDS011;68687;52.030;7.110;2023-08-17T11:50:14;22.67;;;16.88;;
41653;SDS011;68687;52.030;7.110;2023-08-17T11:52:40;26.65;;;18.88;;
41653;SDS011;68687;52.030;7.110;2023-08-17T11:57:34;22.63;;;17.05;;
41653;SDS011;68687;52.030;7.110;2023-08-17T12:00:19;19.92;;;16.27;;
41653;SDS011;68687;52.030;7.110;2023-08-17T12:02:46;20.58;;;16.52;;
41653;SDS011;68687;52.030;7.110;2023-08-17T12:05:13;23.30;;;16.40;;
41653;SDS011;68687;52.030;7.110;2023-08-17T12:07:41;24.85;;;16.70;;
41653;SDS011;68687;52.030;7.110;2023-08-17T12:10:07;23.20;;;19.13;;
41653;SDS011;68687;52.030;7.110;2023-08-17T12:12:36;26.75;;;19.27;;
41653;SDS011;68687;52.030;7.110;2023-08-17T12:15:03;25.15;;;17.25;;
41653;SDS011;68687;52.030;7.110;2023-08-17T12:17:29;25.80;;;18.35;;
41653;SDS011;68687;52.030;7.110;2023-08-17T12:19:54;24.52;;;18.83;;
41653;SDS011;68687;52.030;7.110;2023-08-17T12:22:22;26.45;;;19.85;;
41653;SDS011;68687;52.030;7.110;2023-08-17T12:24:48;23.45;;;17.40;;
41653;SDS011;68687;52.030;7.110;2023-08-17T12:27:14;26.77;;;18.20;;
41653;SDS011;68687;52.030;7.110;2023-08-17T12:29:46;29.13;;;20.42;;
41653;SDS011;68687;52.030;7.110;2023-08-17T12:32:13;23.38;;;18.27;;
41653;SDS011;68687;52.030;7.110;2023-08-17T12:34:42;24.33;;;17.65;;
41653;SDS011;68687;52.030;7.110;2023-08-17T12:37:18;28.42;;;18.70;;
41653;SDS011;68687;52.030;7.110;2023-08-17T12:39:44;31.73;;;18.95;;
41653;SDS011;68687;52.030;7.110;2023-08-17T12:42:13;25.17;;;17.45;;
41653;SDS011;68687;52.030;7.110;2023-08-17T12:44:39;22.75;;;18.60;;
41653;SDS011;68687;52.030;7.110;2023-08-17T12:47:05;23.45;;;18.77;;
41653;SDS011;68687;52.030;7.110;2023-08-17T12:49:30;26.63;;;20.10;;
41653;SDS011;68687;52.030;7.110;2023-08-17T12:51:56;25.05;;;19.42;;
41653;SDS011;68687;52.030;7.110;2023-08-17T12:54:21;25.35;;;19.52;;
41653;SDS011;68687;52.030;7.110;2023-08-17T12:56:53;30.75;;;18.95;;
41653;SDS011;68687;52.030;7.110;2023-08-17T12:59:18;25.48;;;17.83;;
41653;SDS011;68687;52.030;7.110;2023-08-17T13:01:43;32.67;;;19.27;;
41653;SDS011;68687;52.030;7.110;2023-08-17T13:04:08;33.38;;;20.23;;
41653;SDS011;68687;52.030;7.110;2023-08-17T13:06:34;25.23;;;19.27;;
41653;SDS011;68687;52.030;7.110;2023-08-17T13:08:59;28.08;;;18.23;;
41653;SDS011;68687;52.030;7.110;2023-08-17T13:11:24;26.88;;;19.40;;
41653;SDS011;68687;52.030;7.110;2023-08-17T13:13:49;25.65;;;18.67;;
41653;SDS011;68687;52.030;7.110;2023-08-17T13:16:23;26.27;;;19.13;;
41653;SDS011;68687;52.030;7.110;2023-08-17T13:18:49;27.50;;;19.37;;
41653;SDS011;68687;52.030;7.110;2023-08-17T13:21:14;29.90;;;19.48;;
41653;SDS011;68687;52.030;7.110;2023-08-17T13:23:47;29.55;;;18.63;;
41653;SDS011;68687;52.030;7.110;2023-08-17T13:26:12;26.08;;;18.30;;
41653;SDS011;68687;52.030;7.110;2023-08-17T13:28:37;26.50;;;20.23;;
41653;SDS011;68687;52.030;7.110;2023-08-17T13:31:02;28.13;;;19.05;;
41653;SDS011;68687;52.030;7.110;2023-08-17T13:33:28;25.77;;;19.15;;
41653;SDS011;68687;52.030;7.110;2023-08-17T13:35:53;28.50;;;19.83;;
41653;SDS011;68687;52.030;7.110;2023-08-17T13:38:19;30.60;;;18.15;;
41653;SDS011;68687;52.030;7.110;2023-08-17T13:40:47;37.95;;;20.50;;
41653;SDS011;68687;52.030;7.110;2023-08-17T13:43:13;24.35;;;18.38;;
41653;SDS011;68687;52.030;7.110;2023-08-17T13:45:38;25.13;;;19.20;;
41653;SDS011;68687;52.030;7.110;2023-08-17T13:48:05;26.30;;;17.80;;
41653;SDS011;68687;52.030;7.110;2023-08-17T13:50:45;24.55;;;18.20;;
41653;SDS011;68687;52.030;7.110;2023-08-17T13:53:11;26.58;;;18.75;;
41653;SDS011;68687;52.030;7.110;2023-08-17T13:55:39;28.00;;;19.38;;
41653;SDS011;68687;52.030;7.110;2023-08-17T13:58:05;26.70;;;18.17;;
41653;SDS011;68687;52.030;7.110;2023-08-17T14:00:36;29.55;;;19.38;;
41653;SDS011;68687;52.030;7.110;2023-08-17T14:03:08;25.85;;;17.30;;
41653;SDS011;68687;52.030;7.110;2023-08-17T14:05:33;22.52;;;17.42;;
41653;SDS011;68687;52.030;7.110;2023-08-17T14:08:01;34.00;;;17.67;;
41653;SDS011;68687;52.030;7.110;2023-08-17T14:10:28;23.30;;;18.25;;
41653;SDS011;68687;52.030;7.110;2023-08-17T14:12:54;25.77;;;18.35;;
41653;SDS011;68687;52.030;7.110;2023-08-17T14:15:22;25.40;;;17.40;;
41653;SDS011;68687;52.030;7.110;2023-08-17T14:17:47;24.80;;;18.58;;
41653;SDS011;68687;52.030;7.110;2023-08-17T14:20:13;29.33;;;17.95;;
41653;SDS011;68687;52.030;7.110;2023-08-17T14:22:39;31.00;;;19.65;;
41653;SDS011;68687;52.030;7.110;2023-08-17T14:25:04;27.52;;;19.02;;
41653;SDS011;68687;52.030;7.110;2023-08-17T14:27:30;26.10;;;18.35;;
41653;SDS011;68687;52.030;7.110;2023-08-17T14:29:56;27.27;;;20.20;;
41653;SDS011;68687;52.030;7.110;2023-08-17T14:32:24;27.63;;;17.77;;
41653;SDS011;68687;52.030;7.110;2023-08-17T14:34:50;25.70;;;18.75;;
41653;SDS011;68687;52.030;7.110;2023-08-17T14:37:15;28.47;;;19.67;;
41653;SDS011;68687;52.030;7.110;2023-08-17T14:39:41;27.48;;;20.08;;
41653;SDS011;68687;52.030;7.110;2023-08-17T14:42:06;27.02;;;18.33;;